Time;durP1;ratioP1;P1;durP2;ratioP2;P2;SDS_P1;SDS_P2;PMS_P1;PMS_P2;Temp;Humidity;BMP_temperature;BMP_pressure;BME280_temperature;BME280_humidity;BME280_pressure;Samples;Min_cycle;Max_cycle;Signal;HPM_P1;HPM_P2
2022/01/02 00:01:46;;;;;;;13.75;12.45;;;;;;;12.86;60.22;101911.41;5052875;28;20412;-73
2022/01/02 00:04:16;;;;;;;13.95;12.55;;;;;;;12.93;59.99;101915.28;5052819;28;20934;-74
2022/01/02 00:06:47;;;;;;;13.73;12.43;;;;;;;12.85;59.89;101915.00;5053174;28;20447;-73
2022/01/02 00:09:34;;;;;;;12.82;11.52;;;;;;;12.82;60.30;101912.59;5052763;28;20459;-74
2022/01/02 00:12:21;;;;;;;13.30;12.00;;;;;;;12.67;60.80;101911.03;5052717;28;20965;-74
2022/01/02 00:14:49;;;;;;;12.45;11.32;;;;;;;12.62;61.13;101920.19;5052944;28;20405;-72
2022/01/02 00:17:22;;;;;;;12.05;10.93;;;;;;;12.66;60.95;101920.00;5052922;28;20440;-73
2022/01/02 00:19:53;;;;;;;12.70;11.40;;;;;;;12.61;60.89;101920.31;5052849;28;20422;-72
2022/01/02 00:22:25;;;;;;;12.48;11.27;;;;;;;12.76;60.48;101926.34;5052756;28;20507;-72
2022/01/02 00:24:54;;;;;;;13.13;11.77;;;;;;;12.80;60.31;101926.00;5052583;28;20502;-72
2022/01/02 00:27:23;;;;;;;12.55;11.35;;;;;;;12.70;60.76;101924.13;5052542;28;20453;-73
2022/01/02 00:29:51;;;;;;;13.27;12.05;;;;;;;12.78;60.61;101929.72;5052741;28;20404;-72
2022/01/02 00:32:19;;;;;;;12.95;11.75;;;;;;;12.72;60.56;101940.81;5052592;28;20494;-69
2022/01/02 00:34:51;;;;;;;12.82;11.63;;;;;;;12.76;60.41;101940.47;5028169;28;20416;-72
2022/01/02 00:37:19;;;;;;;13.70;12.40;;;;;;;12.74;60.74;101945.06;5052238;28;20798;-71
2022/01/02 00:39:46;;;;;;;13.38;12.18;;;;;;;12.79;60.58;101944.72;5051875;28;20990;-72
2022/01/02 00:42:20;;;;;;;14.00;12.60;;;;;;;12.74;60.62;101953.03;5052338;28;20423;-74
2022/01/02 00:44:58;;;;;;;14.23;12.90;;;;;;;12.78;60.35;101946.53;5051774;28;20515;-74
2022/01/02 00:47:32;;;;;;;14.32;12.93;;;;;;;12.78;60.55;101951.84;5051678;28;20456;-72
2022/01/02 00:50:10;;;;;;;13.90;12.60;;;;;;;12.75;60.23;101951.22;5051755;28;20419;-73
2022/01/02 00:52:38;;;;;;;14.48;13.18;;;;;;;12.71;60.47;101947.94;5052290;28;20408;-72
2022/01/02 00:55:08;;;;;;;14.30;12.98;;;;;;;12.60;61.09;101950.53;5051801;28;20417;-73
2022/01/02 00:57:38;;;;;;;14.32;12.75;;;;;;;12.63;60.94;101952.94;5052209;28;20412;-74
2022/01/02 01:00:12;;;;;;;13.95;12.55;;;;;;;12.60;60.67;101955.84;5051422;28;20985;-72
2022/01/02 01:02:44;;;;;;;14.10;12.70;;;;;;;12.47;61.12;101962.97;5051916;28;20491;-72
2022/01/02 01:05:11;;;;;;;13.85;12.60;;;;;;;12.55;60.92;101952.66;5051188;28;20424;-73
2022/01/02 01:07:40;;;;;;;13.75;12.40;;;;;;;12.57;60.83;101962.22;5051810;28;20500;-72
2022/01/02 01:10:11;;;;;;;13.70;12.40;;;;;;;12.56;61.07;101968.50;5051916;28;20448;-72
2022/01/02 01:12:38;;;;;;;13.60;12.40;;;;;;;12.55;60.72;101964.16;5051696;28;20413;-73
2022/01/02 01:15:07;;;;;;;14.40;13.10;;;;;;;12.61;60.53;101966.38;5051980;28;20495;-72
2022/01/02 01:17:37;;;;;;;13.85;12.65;;;;;;;12.53;61.00;101965.19;5051554;28;20507;-74
2022/01/02 01:20:04;;;;;;;13.55;12.25;;;;;;;12.48;61.18;101972.66;5051479;28;20444;-72
2022/01/02 01:22:31;;;;;;;13.50;12.30;;;;;;;12.41;61.20;101970.44;5051720;28;20447;-74
2022/01/02 01:24:58;;;;;;;13.02;11.90;;;;;;;12.39;61.62;101984.81;5050601;28;20881;-71
2022/01/02 01:27:26;;;;;;;13.32;12.02;;;;;;;12.41;61.38;101975.75;5050858;28;20416;-71
2022/01/02 01:29:53;;;;;;;13.98;12.68;;;;;;;12.52;61.23;101984.78;5050667;28;20850;-71
2022/01/02 01:32:19;;;;;;;14.55;13.25;;;;;;;12.48;61.06;101975.31;5050970;28;20455;-71
2022/01/02 01:34:48;;;;;;;14.95;13.50;;;;;;;12.43;61.14;101976.50;5035730;28;20420;-73
2022/01/02 01:37:15;;;;;;;14.75;13.35;;;;;;;12.54;60.71;101972.22;5050968;28;20427;-71
2022/01/02 01:39:42;;;;;;;14.82;13.48;;;;;;;12.45;61.31;101971.06;5051371;28;20427;-73
2022/01/02 01:42:11;;;;;;;15.25;13.65;;;;;;;12.47;61.04;101978.91;5051372;28;20436;-71
2022/01/02 01:45:04;;;;;;;14.93;13.52;;;;;;;12.44;61.14;101974.69;5051218;28;20482;-73
2022/01/02 01:47:31;;;;;;;14.52;13.23;;;;;;;12.42;61.23;101972.13;5050642;28;20426;-72
2022/01/02 01:49:59;;;;;;;15.50;14.05;;;;;;;12.38;60.79;101973.31;5050865;28;20914;-74
2022/01/02 01:52:26;;;;;;;16.23;14.63;;;;;;;12.35;61.33;101978.84;5051102;28;20408;-73
2022/01/02 01:54:53;;;;;;;14.93;13.63;;;;;;;12.32;61.44;101970.22;5050893;28;20417;-72
2022/01/02 01:57:20;;;;;;;14.25;12.95;;;;;;;12.25;61.87;101966.28;5050722;28;20420;-72
2022/01/02 01:59:48;;;;;;;15.38;13.98;;;;;;;12.22;61.82;101973.53;5051025;28;20504;-73
2022/01/02 02:02:15;;;;;;;15.60;14.10;;;;;;;12.19;61.77;101967.59;5050637;28;20981;-73
2022/01/02 02:04:42;;;;;;;15.35;14.00;;;;;;;12.20;61.54;101969.28;5050791;28;20432;-70
2022/01/02 02:07:11;;;;;;;16.20;14.70;;;;;;;12.21;61.94;101969.19;5050328;28;20491;-70
2022/01/02 02:09:53;;;;;;;16.40;14.80;;;;;;;12.23;61.42;101975.22;5050523;28;20454;-71
2022/01/02 02:12:20;;;;;;;15.48;14.07;;;;;;;12.06;61.94;101972.88;5050881;28;20404;-72
2022/01/02 02:14:48;;;;;;;14.60;13.27;;;;;;;12.05;62.09;101968.53;5050918;28;20887;-73
2022/01/02 02:17:14;;;;;;;14.50;13.00;;;;;;;12.23;61.66;101972.56;5050501;28;20448;-73
2022/01/02 02:19:41;;;;;;;14.70;13.30;;;;;;;12.16;61.65;101970.44;5050768;28;20420;-73
2022/01/02 02:22:12;;;;;;;14.67;13.20;;;;;;;12.13;61.80;101971.53;5050783;28;20427;-74
2022/01/02 02:24:40;;;;;;;14.52;13.13;;;;;;;12.13;62.03;101976.00;5050546;28;20416;-74
2022/01/02 02:27:07;;;;;;;14.35;13.15;;;;;;;12.13;61.94;101974.19;5050436;28;21283;-72
2022/01/02 02:29:34;;;;;;;15.13;13.68;;;;;;;12.13;61.38;101971.53;5050284;28;20412;-73
2022/01/02 02:32:01;;;;;;;16.10;14.60;;;;;;;12.15;61.49;101980.22;5050187;28;20415;-73
2022/01/02 02:34:28;;;;;;;16.90;15.40;;;;;;;12.17;61.49;101982.78;5032992;28;20914;-72
2022/01/02 02:36:55;;;;;;;17.45;15.80;;;;;;;12.04;61.83;101977.44;5050414;28;20409;-73
2022/01/02 02:39:23;;;;;;;17.20;15.70;;;;;;;12.08;61.77;101978.09;5050368;28;20504;-73
2022/01/02 02:41:50;;;;;;;17.02;15.43;;;;;;;12.17;61.19;101991.59;5049955;28;20491;-71
2022/01/02 02:44:32;;;;;;;17.85;16.25;;;;;;;12.14;61.01;101988.31;5050236;28;20449;-72
2022/01/02 02:49:43;;;;;;;17.77;16.17;;;;;;;12.22;60.79;101992.13;5050012;28;20415;-73
2022/01/02 02:52:19;;;;;;;17.80;16.10;;;;;;;12.21;61.02;101989.59;5049816;28;20423;-72
2022/01/02 02:54:48;;;;;;;17.27;15.77;;;;;;;12.13;61.00;101998.09;5049751;28;20417;-73
2022/01/02 02:57:17;;;;;;;16.55;15.02;;;;;;;12.03;61.44;101991.72;5032259;28;20760;-72
2022/01/02 02:59:45;;;;;;;16.30;14.85;;;;;;;12.02;61.09;101996.19;5049961;28;20416;-75
2022/01/02 03:02:11;;;;;;;16.70;15.10;;;;;;;12.01;61.71;102005.09;5049897;28;20580;-71
2022/01/02 03:04:38;;;;;;;16.60;15.10;;;;;;;12.02;61.64;102008.59;5049790;28;20440;-74
2022/01/02 03:07:05;;;;;;;17.33;15.73;;;;;;;12.01;61.45;102004.25;5049490;28;20418;-74
2022/01/02 03:09:39;;;;;;;16.83;15.23;;;;;;;11.95;61.88;102002.00;5049275;28;20961;-75
2022/01/02 03:12:09;;;;;;;17.35;15.75;;;;;;;11.99;61.61;101999.03;5049478;28;20776;-74
2022/01/02 03:14:36;;;;;;;17.40;15.90;;;;;;;12.04;61.60;102001.34;5049354;28;20495;-73
2022/01/02 03:17:04;;;;;;;16.85;15.35;;;;;;;11.94;61.54;102006.47;5049286;28;20978;-73
2022/01/02 03:19:31;;;;;;;17.67;16.05;;;;;;;11.96;61.66;102001.91;5049126;28;20767;-73
2022/01/02 03:21:58;;;;;;;17.58;15.88;;;;;;;11.97;61.65;101998.28;5049597;28;20412;-71
2022/01/02 03:24:25;;;;;;;17.48;15.82;;;;;;;12.01;61.70;101994.47;5064874;28;20415;-73
2022/01/02 03:26:52;;;;;;;17.55;15.95;;;;;;;11.96;61.66;102004.56;5049473;28;20424;-72
2022/01/02 03:29:21;;;;;;;18.00;16.30;;;;;;;11.85;62.08;102001.75;5049225;28;20428;-73
2022/01/02 03:31:48;;;;;;;17.77;16.27;;;;;;;11.85;62.09;102000.91;5049393;28;20487;-73
2022/01/02 03:34:14;;;;;;;18.02;16.42;;;;;;;11.88;62.01;101993.59;5031798;28;20503;-74
2022/01/02 03:36:41;;;;;;;18.00;16.30;;;;;;;11.97;61.95;101994.78;5049135;28;20416;-72
2022/01/02 03:39:08;;;;;;;18.40;16.60;;;;;;;11.92;62.05;101995.09;5049036;28;20507;-72
2022/01/02 03:41:35;;;;;;;18.40;16.60;;;;;;;11.90;62.03;101996.16;5049385;28;20496;-73
2022/01/02 03:44:02;;;;;;;18.38;16.67;;;;;;;11.90;61.96;101998.78;5049097;28;20495;-74
2022/01/02 03:46:31;;;;;;;18.85;17.02;;;;;;;11.87;62.32;101996.34;5049209;28;20429;-74
2022/01/02 03:48:57;;;;;;;19.02;17.15;;;;;;;12.02;61.81;101988.22;5031595;28;20420;-71
2022/01/02 03:51:24;;;;;;;18.50;16.70;;;;;;;11.91;61.97;101984.59;5049333;28;20504;-72
2022/01/02 03:53:52;;;;;;;18.60;16.80;;;;;;;11.87;62.20;101986.56;5049396;28;20483;-73
2022/01/02 03:56:19;;;;;;;19.10;17.30;;;;;;;11.93;61.85;101991.47;5048927;28;20997;-72
2022/01/02 03:58:46;;;;;;;18.55;16.77;;;;;;;12.00;61.65;101999.88;5048874;28;20419;-71
2022/01/02 04:01:13;;;;;;;18.98;17.20;;;;;;;12.00;61.64;102003.41;5049302;28;20440;-71
2022/01/02 04:03:41;;;;;;;19.92;17.92;;;;;;;11.97;61.64;102000.09;5048467;28;20940;-72
2022/01/02 04:06:08;;;;;;;114.57;97.25;;;;;;;12.03;61.42;101997.00;5048781;28;20527;-71
2022/01/02 04:08:35;;;;;;;126.50;96.47;;;;;;;12.02;61.64;102000.63;5049131;28;20446;-71
2022/01/02 04:11:02;;;;;;;30.85;27.80;;;;;;;11.98;61.55;101999.13;5048769;28;20865;-71
2022/01/02 04:13:28;;;;;;;50.35;46.35;;;;;;;12.04;61.43;101998.69;5048681;28;20500;-72
2022/01/02 04:15:55;;;;;;;31.35;28.63;;;;;;;12.05;61.43;101995.09;5048964;28;20779;-72
2022/01/02 04:18:22;;;;;;;30.85;28.25;;;;;;;12.00;61.40;102000.75;5048963;28;20427;-72
2022/01/02 04:20:51;;;;;;;24.63;22.42;;;;;;;11.95;61.66;101999.34;5049002;28;20489;-72
2022/01/02 04:23:18;;;;;;;26.55;24.15;;;;;;;11.86;62.16;102002.59;5049013;28;20413;-74
2022/01/02 04:25:45;;;;;;;26.90;24.60;;;;;;;11.89;61.96;101995.31;5048865;28;20443;-72
2022/01/02 04:28:12;;;;;;;24.08;21.88;;;;;;;11.88;62.02;101996.25;5048622;28;20504;-72
2022/01/02 04:30:39;;;;;;;30.08;27.73;;;;;;;11.88;61.68;101998.91;5049600;28;20451;-73
2022/01/02 04:33:06;;;;;;;22.70;20.70;;;;;;;11.97;61.74;102002.75;5044020;28;20412;-67
2022/01/02 04:35:33;;;;;;;24.35;22.23;;;;;;;11.88;61.96;102003.34;5042976;28;20462;-72
2022/01/02 04:38:01;;;;;;;25.58;23.20;;;;;;;11.81;62.07;101995.78;5052161;28;20981;-72
2022/01/02 04:40:28;;;;;;;26.67;24.35;;;;;;;11.76;62.22;102003.22;5052183;28;20932;-71
2022/01/02 04:42:55;;;;;;;20.30;18.40;;;;;;;11.73;62.27;102008.72;5052160;28;20408;-73
2022/01/02 04:45:22;;;;;;;32.45;29.65;;;;;;;11.89;61.86;102011.22;5052033;28;20910;-72
2022/01/02 04:47:49;;;;;;;23.77;21.70;;;;;;;11.85;61.74;102007.06;5051589;28;20941;-67
2022/01/02 04:50:16;;;;;;;23.10;21.00;;;;;;;11.79;61.96;102005.66;5051543;28;20507;-72
2022/01/02 04:52:43;;;;;;;22.88;20.85;;;;;;;11.83;61.79;102009.81;5051995;28;20767;-72
2022/01/02 04:55:11;;;;;;;27.65;25.25;;;;;;;11.86;61.28;102019.38;5051831;28;20922;-72
2022/01/02 04:57:38;;;;;;;22.58;20.42;;;;;;;11.87;61.52;102017.56;5050673;28;20405;-72
2022/01/02 05:00:07;;;;;;;25.73;23.23;;;;;;;11.80;61.67;102025.97;5051814;28;20504;-73
2022/01/02 05:02:34;;;;;;;25.33;23.13;;;;;;;11.87;61.37;102028.19;5052034;28;20413;-73
2022/01/02 05:05:01;;;;;;;23.33;21.33;;;;;;;11.77;61.77;102039.41;5051748;28;20416;-72
2022/01/02 05:07:28;;;;;;;37.92;35.08;;;;;;;11.70;62.03;102043.47;5051800;28;20535;-73
2022/01/02 05:09:55;;;;;;;23.80;21.60;;;;;;;11.87;61.40;102047.63;5051918;28;20486;-73
2022/01/02 05:12:23;;;;;;;21.15;19.17;;;;;;;11.79;61.58;102047.28;5051876;28;20948;-73
2022/01/02 05:14:50;;;;;;;21.08;19.15;;;;;;;11.88;61.36;102053.78;5051610;28;20415;-72
2022/01/02 05:17:17;;;;;;;19.60;17.60;;;;;;;11.79;61.77;102052.59;5052014;28;20416;-71
2022/01/02 05:19:44;;;;;;;23.52;21.42;;;;;;;11.72;61.66;102052.16;5051477;28;20424;-72
2022/01/02 05:22:11;;;;;;;20.02;18.23;;;;;;;11.77;61.82;102049.19;5051470;28;20420;-71
2022/01/02 05:24:38;;;;;;;31.27;28.67;;;;;;;11.81;61.13;102056.84;5051638;28;20416;-71
2022/01/02 05:27:05;;;;;;;21.38;19.33;;;;;;;11.78;61.60;102056.19;5051312;28;20810;-73
2022/01/02 05:29:33;;;;;;;27.35;25.02;;;;;;;11.67;62.08;102053.41;5051661;28;20416;-72
2022/01/02 05:32:00;;;;;;;23.48;21.45;;;;;;;11.61;62.08;102054.66;5051260;28;20869;-72
2022/01/02 05:34:27;;;;;;;22.40;20.40;;;;;;;11.75;61.58;102062.56;5036687;28;20413;-73
2022/01/02 05:36:54;;;;;;;20.85;18.95;;;;;;;11.74;61.58;102060.00;5051172;28;20408;-73
2022/01/02 05:39:22;;;;;;;22.73;20.70;;;;;;;11.59;62.14;102061.88;5051086;28;20791;-72
2022/01/02 05:41:51;;;;;;;28.70;26.27;;;;;;;11.65;62.06;102063.28;5051417;28;20412;-71
2022/01/02 05:44:18;;;;;;;21.48;19.48;;;;;;;11.63;61.81;102056.25;5050931;28;20495;-75
2022/01/02 05:46:47;;;;;;;24.55;22.20;;;;;;;11.74;61.34;102055.56;5051298;28;20428;-72
2022/01/02 05:49:16;;;;;;;24.20;22.00;;;;;;;11.85;61.41;102059.31;5050685;28;20420;-75
2022/01/02 05:51:43;;;;;;;22.05;19.95;;;;;;;11.79;61.14;102066.72;5050853;28;20499;-72
2022/01/02 05:54:10;;;;;;;29.00;26.50;;;;;;;11.90;60.84;102067.84;5050752;28;20417;-71
2022/01/02 05:56:37;;;;;;;45.80;41.88;;;;;;;11.98;60.67;102061.09;5051172;28;20423;-75
2022/01/02 05:59:04;;;;;;;37.33;33.63;;;;;;;12.03;60.27;102074.03;5051139;28;20515;-72
2022/01/02 06:01:31;;;;;;;30.92;27.83;;;;;;;12.05;60.74;102064.16;5050501;28;20491;-72
2022/01/02 06:04:00;;;;;;;27.33;24.58;;;;;;;11.98;60.93;102068.19;5050838;28;20419;-71
2022/01/02 06:06:27;;;;;;;44.78;40.10;;;;;;;12.20;60.09;102071.06;5032663;28;20433;-72
2022/01/02 06:08:54;;;;;;;27.48;24.90;;;;;;;12.38;59.46;102068.97;5050408;28;20786;-73
2022/01/02 06:11:21;;;;;;;30.67;27.67;;;;;;;12.43;59.02;102074.00;5050401;28;20421;-73
2022/01/02 06:13:48;;;;;;;23.52;21.42;;;;;;;12.31;59.26;102070.38;5050714;28;20439;-72
2022/01/02 06:16:15;;;;;;;23.23;21.13;;;;;;;12.32;59.24;102076.53;5050715;28;20496;-73
2022/01/02 06:18:42;;;;;;;22.77;20.67;;;;;;;12.81;58.28;102087.28;5050374;28;20930;-71
2022/01/02 06:21:10;;;;;;;22.25;20.25;;;;;;;14.44;53.88;102079.75;5050371;28;20968;-73
2022/01/02 06:23:37;;;;;;;21.63;19.80;;;;;;;15.56;51.08;102091.34;5050142;28;20423;-72
2022/01/02 06:26:04;;;;;;;21.35;19.45;;;;;;;16.45;48.30;102086.56;5050138;28;20432;-71
2022/01/02 06:28:31;;;;;;;21.73;19.92;;;;;;;17.50;45.93;102088.94;5050399;28;20416;-71
2022/01/02 06:30:58;;;;;;;36.15;33.65;;;;;;;18.47;43.37;102090.72;5050326;28;20500;-71
2022/01/02 06:33:25;;;;;;;14.75;13.45;;;;;;;19.45;41.38;102091.13;5034820;28;21188;-64
2022/01/02 06:35:52;;;;;;;13.63;12.40;;;;;;;20.24;39.45;102102.13;5049607;28;20814;-71
2022/01/02 06:38:22;;;;;;;18.13;16.52;;;;;;;21.10;37.92;102109.34;5049806;28;20840;-72
2022/01/02 06:40:49;;;;;;;14.47;13.27;;;;;;;21.81;36.42;102108.03;5049984;28;20858;-71
2022/01/02 06:43:17;;;;;;;20.85;18.95;;;;;;;22.72;34.82;102106.94;5049814;28;20495;-71
2022/01/02 06:45:44;;;;;;;17.35;15.95;;;;;;;23.19;33.17;102110.66;5049741;28;20416;-75
2022/01/02 06:48:11;;;;;;;15.77;14.40;;;;;;;24.12;32.01;102117.81;5049859;28;20420;-70
2022/01/02 06:50:39;;;;;;;15.77;14.40;;;;;;;24.74;30.84;102113.19;5050053;28;20420;-71
2022/01/02 06:53:06;;;;;;;16.60;15.20;;;;;;;25.24;30.07;102119.69;5049245;28;20462;-71
2022/01/02 06:55:34;;;;;;;14.73;13.52;;;;;;;25.86;28.92;102120.16;5048979;28;20516;-72
2022/01/02 06:58:01;;;;;;;12.23;11.23;;;;;;;26.68;27.52;102124.16;5049597;28;20416;-71
2022/01/02 07:00:28;;;;;;;12.45;11.30;;;;;;;27.08;27.21;102119.75;5049506;28;20424;-74
2022/01/02 07:02:55;;;;;;;11.38;10.43;;;;;;;27.91;26.04;102121.50;5049565;28;20500;-71
2022/01/02 07:05:22;;;;;;;12.20;11.00;;;;;;;28.89;24.89;102127.06;5049512;28;21170;-73
2022/01/02 07:07:49;;;;;;;14.65;13.50;;;;;;;29.44;23.95;102140.28;5049377;28;20806;-72
2022/01/02 07:10:17;;;;;;;11.50;10.50;;;;;;;30.14;22.98;102132.00;5049333;28;20496;-72
2022/01/02 07:12:45;;;;;;;11.33;10.37;;;;;;;30.76;22.21;102136.69;5049580;28;20421;-72
2022/01/02 07:15:12;;;;;;;10.57;9.70;;;;;;;31.20;21.48;102129.22;5049567;28;20488;-72
2022/01/02 07:17:39;;;;;;;12.63;11.63;;;;;;;32.00;20.57;102119.84;5049635;28;20432;-71
2022/01/02 07:20:08;;;;;;;13.90;12.90;;;;;;;32.44;20.37;102120.34;5049213;28;20417;-72
2022/01/02 07:22:35;;;;;;;12.52;11.52;;;;;;;32.86;19.64;102122.06;5049565;28;20431;-71
2022/01/02 07:25:03;;;;;;;11.00;10.10;;;;;;;32.78;19.83;102120.53;5048381;28;20503;-72
2022/01/02 07:27:30;;;;;;;10.95;10.05;;;;;;;33.62;19.21;102114.53;5048503;28;20503;-71
2022/01/02 07:29:59;;;;;;;10.77;9.90;;;;;;;34.36;18.13;102105.25;5048505;28;20413;-73
2022/01/02 07:32:26;;;;;;;9.73;8.75;;;;;;;34.78;17.96;102113.00;5048454;28;20412;-72
2022/01/02 07:34:53;;;;;;;12.23;11.07;;;;;;;34.89;17.74;102109.25;5034125;28;20413;-72
2022/01/02 07:37:20;;;;;;;12.50;11.43;;;;;;;35.13;17.48;102105.41;5048922;28;21024;-73
2022/01/02 07:39:47;;;;;;;11.20;10.10;;;;;;;36.19;16.69;102114.91;5049267;28;20413;-71
2022/01/02 07:42:14;;;;;;;11.38;10.18;;;;;;;36.37;16.57;102108.13;5048868;28;20435;-73
2022/01/02 07:44:41;;;;;;;9.70;8.87;;;;;;;36.47;16.11;102099.91;5048702;28;20929;-73
2022/01/02 07:47:10;;;;;;;9.73;8.73;;;;;;;36.53;15.77;102103.53;5049224;28;20531;-73
2022/01/02 07:49:37;;;;;;;12.85;11.60;;;;;;;36.58;15.63;102098.00;5049250;28;20405;-71
2022/01/02 07:52:04;;;;;;;10.20;9.20;;;;;;;36.14;16.16;102104.66;5048804;28;20413;-72
2022/01/02 07:54:31;;;;;;;8.63;7.65;;;;;;;36.72;15.58;102092.84;5031119;28;20416;-72
2022/01/02 07:56:58;;;;;;;8.33;7.53;;;;;;;37.21;15.52;102098.84;5048635;28;20512;-73
2022/01/02 07:59:25;;;;;;;8.75;7.95;;;;;;;37.12;15.42;102099.63;5048831;28;21063;-72
2022/01/02 08:01:52;;;;;;;8.80;7.90;;;;;;;37.46;14.67;102097.19;5031056;28;20499;-73
2022/01/02 08:04:20;;;;;;;8.70;7.90;;;;;;;37.97;14.69;102104.66;5049144;28;20417;-75
2022/01/02 08:06:47;;;;;;;8.07;7.37;;;;;;;37.78;14.97;102099.72;5051996;28;20438;-73
2022/01/02 08:09:14;;;;;;;7.93;7.20;;;;;;;38.37;14.14;102109.28;5053362;28;20483;-71
2022/01/02 08:11:41;;;;;;;8.23;7.43;;;;;;;38.76;13.99;102111.38;5053202;28;20412;-72
2022/01/02 08:14:08;;;;;;;7.35;6.68;;;;;;;39.76;13.05;102102.97;5052855;28;20921;-74
2022/01/02 08:16:35;;;;;;;6.25;5.63;;;;;;;39.83;13.03;102107.06;5052681;28;20466;-74
2022/01/02 08:19:05;;;;;;;6.47;5.88;;;;;;;39.65;12.91;102094.75;5053043;28;20455;-72
2022/01/02 08:21:34;;;;;;;6.10;5.57;;;;;;;39.06;13.30;102102.09;5052901;28;20412;-73
2022/01/02 08:24:01;;;;;;;6.55;5.95;;;;;;;39.72;12.90;102096.34;5052635;28;20503;-72
2022/01/02 08:26:28;;;;;;;6.47;5.88;;;;;;;39.87;12.80;102095.41;5052888;28;20503;-72
2022/01/02 08:28:55;;;;;;;6.10;5.60;;;;;;;40.52;12.35;102095.00;5052872;28;20495;-73
2022/01/02 08:31:22;;;;;;;6.20;5.60;;;;;;;40.93;12.06;102097.22;5052495;28;20969;-73
2022/01/02 08:33:49;;;;;;;5.70;5.30;;;;;;;41.83;11.83;102103.56;5042446;28;20627;-71
2022/01/02 08:36:16;;;;;;;7.00;6.15;;;;;;;42.02;11.31;102092.41;5042228;28;20491;-72
2022/01/02 08:38:46;;;;;;;5.77;5.27;;;;;;;40.79;12.32;102077.69;5052471;28;20432;-73
2022/01/02 08:41:14;;;;;;;7.07;6.47;;;;;;;41.21;12.03;102082.34;5052212;28;20416;-74
2022/01/02 08:43:41;;;;;;;7.53;7.03;;;;;;;40.59;12.22;102087.09;5052024;28;20416;-72
2022/01/02 08:46:08;;;;;;;6.90;6.30;;;;;;;40.42;12.19;102088.41;5051599;28;20503;-72
2022/01/02 08:48:35;;;;;;;6.50;5.95;;;;;;;40.51;11.72;102085.00;5065171;28;20941;-73
2022/01/02 08:51:03;;;;;;;6.10;5.60;;;;;;;40.65;11.99;102080.34;5050115;28;20843;-74
2022/01/02 08:53:31;;;;;;;5.50;5.10;;;;;;;40.59;11.90;102078.78;5050405;28;20496;-72
2022/01/02 08:55:59;;;;;;;4.67;4.27;;;;;;;40.91;11.97;102077.25;5050010;28;20466;-73
2022/01/02 08:58:26;;;;;;;5.50;5.00;;;;;;;40.90;11.56;102078.34;5051046;28;20435;-74
2022/01/02 09:00:53;;;;;;;5.97;5.50;;;;;;;41.50;11.52;102072.97;5051024;28;20413;-71
2022/01/02 09:03:20;;;;;;;7.93;7.22;;;;;;;41.53;11.45;102077.09;5051158;28;20499;-72
2022/01/02 09:05:47;;;;;;;6.82;6.18;;;;;;;41.53;11.30;102082.66;5051816;28;20507;-74
2022/01/02 09:08:14;;;;;;;5.55;5.05;;;;;;;41.76;11.34;102078.13;5051657;28;20417;-74
2022/01/02 09:10:40;;;;;;;5.40;5.00;;;;;;;41.36;11.46;102080.44;5051794;28;20413;-74
2022/01/02 09:13:09;;;;;;;6.78;6.18;;;;;;;41.11;11.27;102084.44;5052148;28;20400;-74
2022/01/02 09:15:36;;;;;;;6.27;5.70;;;;;;;40.58;11.95;102074.34;5051634;28;20898;-73
2022/01/02 09:18:05;;;;;;;5.80;5.40;;;;;;;40.66;11.96;102065.34;5051482;28;20511;-73
2022/01/02 09:20:32;;;;;;;5.60;5.10;;;;;;;40.20;11.88;102071.47;5051883;28;20420;-74
2022/01/02 09:22:59;;;;;;;5.70;5.20;;;;;;;41.40;10.82;102065.63;5051537;28;20413;-74
2022/01/02 09:25:26;;;;;;;6.70;6.10;;;;;;;40.74;11.15;102064.72;5051799;28;20412;-74
2022/01/02 09:27:53;;;;;;;4.40;4.10;;;;;;;40.13;11.66;102059.88;5051425;28;20508;-76
2022/01/02 09:30:21;;;;;;;4.70;4.30;;;;;;;39.80;11.87;102051.31;5051086;28;20474;-76
2022/01/02 09:32:48;;;;;;;4.22;3.83;;;;;;;39.88;12.23;102047.94;5051329;28;20519;-77
2022/01/02 09:35:15;;;;;;;5.95;5.43;;;;;;;41.82;11.09;102051.84;5048317;28;20491;-69
2022/01/02 09:37:42;;;;;;;6.10;5.50;;;;;;;42.68;10.66;102047.59;5042130;28;20519;-76
2022/01/02 09:40:10;;;;;;;6.80;6.10;;;;;;;42.26;10.93;102041.25;5051572;28;20433;-76
2022/01/02 09:42:38;;;;;;;6.50;5.90;;;;;;;42.10;10.87;102037.97;5051537;28;20447;-77
2022/01/02 09:45:07;;;;;;;6.47;5.80;;;;;;;41.67;10.95;102033.50;5051420;28;20512;-77
2022/01/02 09:47:36;;;;;;;5.57;5.07;;;;;;;41.13;11.15;102021.03;5051239;28;20412;-77
2022/01/02 09:50:07;;;;;;;5.20;4.72;;;;;;;41.81;11.07;102016.78;5051386;28;20491;-77
2022/01/02 09:52:34;;;;;;;6.50;5.93;;;;;;;43.02;10.23;102013.63;5051076;28;20531;-77
2022/01/02 09:55:01;;;;;;;6.15;5.60;;;;;;;41.83;10.73;102007.03;5051003;28;20495;-76
2022/01/02 09:57:28;;;;;;;6.40;5.80;;;;;;;42.09;11.05;102005.69;5051203;28;20460;-76
2022/01/02 09:59:56;;;;;;;6.13;5.63;;;;;;;42.16;10.82;102003.34;5051280;28;20417;-77
2022/01/02 10:02:23;;;;;;;7.95;7.28;;;;;;;41.22;10.96;102006.19;5051152;28;20427;-77
2022/01/02 10:05:02;;;;;;;6.67;6.17;;;;;;;40.03;11.90;101988.69;5051126;28;20420;-77
2022/01/02 10:07:33;;;;;;;165.93;141.95;;;;;;;40.79;11.44;101999.91;5050606;28;20850;-77
2022/01/02 10:10:08;;;;;;;8.77;7.78;;;;;;;40.54;11.40;102004.69;5050500;28;20413;-77
2022/01/02 10:12:36;;;;;;;8.02;7.25;;;;;;;40.44;11.66;101994.53;5050524;28;20409;-76
2022/01/02 10:15:17;;;;;;;6.27;5.67;;;;;;;40.17;11.75;101992.41;5050951;28;20409;-76
2022/01/02 10:18:03;;;;;;;8.43;6.25;;;;;;;40.67;11.83;101985.63;5050269;28;20938;-77
2022/01/02 10:20:34;;;;;;;8.03;7.33;;;;;;;40.22;12.16;101983.16;5050224;28;20412;-76
2022/01/02 10:23:13;;;;;;;7.68;6.35;;;;;;;40.79;11.27;101972.94;5050665;28;20834;-76
2022/01/02 10:25:46;;;;;;;8.27;7.47;;;;;;;40.57;11.57;101972.69;5050543;28;20408;-81
2022/01/02 10:28:31;;;;;;;8.02;7.28;;;;;;;40.62;11.59;101978.19;5049029;28;20444;-79
2022/01/02 10:31:01;;;;;;;8.52;6.53;;;;;;;40.11;11.92;101970.53;5050134;28;20496;-82
2022/01/02 10:33:29;;;;;;;8.75;6.63;;;;;;;38.46;13.29;101963.63;5050599;28;20416;-77
2022/01/02 10:35:59;;;;;;;8.10;7.00;;;;;;;37.86;13.07;101965.56;5050249;28;20914;-82
2022/01/02 10:38:26;;;;;;;12.70;10.63;;;;;;;38.77;13.02;101954.34;5030730;28;20853;-81
2022/01/02 10:40:54;;;;;;;7.22;6.30;;;;;;;37.46;13.51;101951.53;5050113;28;20918;-80
2022/01/02 10:43:26;;;;;;;7.57;6.88;;;;;;;37.15;14.30;101950.75;5050145;28;20587;-81
2022/01/02 10:45:55;;;;;;;10.55;9.27;;;;;;;37.58;13.91;101947.66;5050062;28;20507;-80
2022/01/02 10:48:32;;;;;;;12.02;10.70;;;;;;;38.93;12.73;101947.56;5049955;28;20455;-78
2022/01/02 10:51:07;;;;;;;12.38;10.48;;;;;;;37.80;13.78;101947.34;5050024;28;20507;-81
2022/01/02 10:53:36;;;;;;;9.82;8.93;;;;;;;37.12;14.44;101939.41;5049766;28;20495;-80
2022/01/02 10:56:04;;;;;;;15.10;8.85;;;;;;;37.55;14.09;101937.13;5049971;28;20435;-80
2022/01/02 10:58:33;;;;;;;10.13;9.23;;;;;;;37.01;14.06;101933.03;5065362;28;20511;-80
2022/01/02 11:01:04;;;;;;;9.38;8.40;;;;;;;36.67;14.61;101917.00;5065352;28;20494;-79
2022/01/02 11:03:32;;;;;;;8.52;7.82;;;;;;;36.41;14.76;101911.41;5032237;28;20600;-81
2022/01/02 11:06:07;;;;;;;7.07;5.68;;;;;;;36.62;14.45;101917.78;5049763;28;20790;-82
2022/01/02 11:08:37;;;;;;;7.63;6.93;;;;;;;36.48;14.78;101909.22;5049953;28;20462;-80
2022/01/02 11:11:05;;;;;;;10.27;7.60;;;;;;;36.04;15.21;101898.56;5049468;28;20425;-82
2022/01/02 11:13:33;;;;;;;6.67;6.07;;;;;;;34.55;16.43;101895.81;5064703;28;20928;-78
2022/01/02 11:16:03;;;;;;;9.50;8.63;;;;;;;34.28;16.59;101885.66;5049425;28;20440;-83
2022/01/02 11:18:32;;;;;;;9.70;7.00;;;;;;;34.68;16.09;101892.69;5049012;28;20900;-81
2022/01/02 11:21:02;;;;;;;10.35;8.35;;;;;;;34.38;16.60;101888.50;5030622;28;20495;-82
2022/01/02 11:23:37;;;;;;;9.73;6.35;;;;;;;33.97;17.00;101881.69;5048476;28;20420;-83